createdAt,value
2023-05-05T00:00:04.689Z,77.93
2023-05-05T00:01:04.627Z,78.55
2023-05-05T00:02:04.631Z,77.62
2023-05-05T00:03:04.688Z,77.72
2023-05-05T00:04:04.655Z,76.79
2023-05-05T00:05:04.536Z,76.39
2023-05-05T00:06:04.542Z,76.18
2023-05-05T00:07:04.518Z,75.97
2023-05-05T00:08:04.495Z,75.97
2023-05-05T00:09:04.478Z,76.79
2023-05-05T00:10:04.472Z,76.90
2023-05-05T00:11:04.464Z,76.79
2023-05-05T00:12:04.469Z,78.34
2023-05-05T00:13:04.442Z,80.19
2023-05-05T00:14:04.422Z,81.12
2023-05-05T00:15:04.406Z,79.88
2023-05-05T00:16:04.406Z,78.55
2023-05-05T00:17:04.431Z,79.47
2023-05-05T00:18:04.406Z,79.27
2023-05-05T00:19:04.359Z,78.34
2023-05-05T00:20:04.350Z,77.83
2023-05-05T00:21:04.374Z,77.51
2023-05-05T00:22:04.314Z,77.66
2023-05-05T00:23:04.303Z,79.20
2023-05-05T00:24:04.300Z,79.41
2023-05-05T00:25:04.277Z,78.58
2023-05-05T00:26:04.300Z,77.97
2023-05-05T00:27:04.334Z,77.55
2023-05-05T00:28:04.224Z,77.66
2023-05-05T00:29:04.239Z,79.00
2023-05-05T00:30:04.220Z,80.44
2023-05-05T00:31:04.262Z,82.19
2023-05-05T00:32:04.222Z,82.91
2023-05-05T00:33:04.275Z,84.05
2023-05-05T00:34:04.224Z,84.59
2023-05-05T00:35:04.178Z,85.11
2023-05-05T00:36:04.157Z,85.11
2023-05-05T00:37:04.115Z,84.91
2023-05-05T00:38:04.141Z,84.19
2023-05-05T00:39:04.085Z,82.84
2023-05-05T00:40:04.085Z,81.85
2023-05-05T00:41:04.074Z,82.47
2023-05-05T00:42:04.122Z,83.91
2023-05-05T00:43:04.032Z,83.40
2023-05-05T00:44:04.031Z,84.43
2023-05-05T00:45:04.008Z,85.57
2023-05-05T00:46:04.086Z,85.25
2023-05-05T00:47:04.000Z,84.53
2023-05-05T00:48:03.991Z,85.05
2023-05-05T00:49:04.004Z,85.67
2023-05-05T00:50:03.999Z,85.05
2023-05-05T00:51:03.989Z,85.15
2023-05-05T00:52:03.938Z,85.87
2023-05-05T00:53:03.952Z,86.22
2023-05-05T00:54:03.897Z,86.63
2023-05-05T00:55:03.898Z,87.46
2023-05-05T00:56:03.895Z,87.77
2023-05-05T00:57:03.867Z,87.46
2023-05-05T00:58:03.851Z,87.05
2023-05-05T00:59:03.849Z,87.15
2023-05-05T01:00:03.839Z,87.77
2023-05-05T01:01:03.810Z,87.05
2023-05-05T01:02:03.870Z,86.32
2023-05-05T01:03:03.866Z,84.16
2023-05-05T01:04:03.889Z,83.75
2023-05-05T01:05:03.772Z,82.71
2023-05-05T01:06:03.745Z,81.89
2023-05-05T01:07:03.724Z,81.27
2023-05-05T01:08:03.711Z,80.24
2023-05-05T01:09:03.704Z,80.04
2023-05-05T01:10:18.073Z,79.62
2023-05-05T01:11:04.678Z,79.83
2023-05-05T01:12:03.657Z,79.83
2023-05-05T01:13:03.737Z,79.21
2023-05-05T01:14:03.622Z,79.11
2023-05-05T01:15:03.626Z,80.34
2023-05-05T01:16:03.648Z,79.93
2023-05-05T01:17:03.585Z,79.83
2023-05-05T01:18:03.626Z,79.62
2023-05-05T01:19:03.584Z,79.21
2023-05-05T01:20:03.578Z,78.90
2023-05-05T01:21:03.532Z,78.59
2023-05-05T01:22:03.538Z,79.21
2023-05-05T01:23:03.512Z,78.90
2023-05-05T01:24:03.510Z,78.59
2023-05-05T01:25:03.520Z,78.90
2023-05-05T01:26:03.479Z,80.04
2023-05-05T01:27:03.449Z,80.55
2023-05-05T01:28:03.445Z,80.65
2023-05-05T01:29:03.466Z,79.72
2023-05-05T01:30:03.448Z,78.69
2023-05-05T01:31:03.417Z,78.38
2023-05-05T01:32:03.480Z,77.91
2023-05-05T01:33:03.386Z,78.11
2023-05-05T01:34:03.371Z,77.28
2023-05-05T01:35:03.649Z,76.87
2023-05-05T01:36:03.342Z,77.28
2023-05-05T01:37:03.334Z,76.98
2023-05-05T01:38:03.322Z,76.35
2023-05-05T01:39:03.323Z,76.04
2023-05-05T01:40:03.296Z,75.63
2023-05-05T01:41:03.294Z,75.84
2023-05-05T01:42:03.383Z,75.84
2023-05-05T01:43:03.251Z,75.84
2023-05-05T01:44:03.242Z,76.35
2023-05-05T01:45:03.260Z,76.56
2023-05-05T01:46:03.255Z,76.87
2023-05-05T01:47:03.204Z,76.98
2023-05-05T01:48:03.256Z,78.01
2023-05-05T01:49:03.226Z,78.83
2023-05-05T01:50:03.203Z,77.70
2023-05-05T01:51:03.191Z,77.28
2023-05-05T01:52:03.162Z,77.08
2023-05-05T01:53:03.123Z,77.49
2023-05-05T01:54:03.115Z,79.86
2023-05-05T01:55:03.098Z,82.03
2023-05-05T01:56:03.100Z,81.21
2023-05-05T01:57:03.076Z,80.58
2023-05-05T01:58:03.055Z,80.90
2023-05-05T01:59:03.031Z,82.14
2023-05-05T02:00:03.051Z,81.82
2023-05-05T02:01:03.040Z,82.65
2023-05-05T02:02:03.148Z,83.68
2023-05-05T02:03:03.027Z,84.61
2023-05-05T02:04:02.974Z,84.61
2023-05-05T02:05:02.963Z,84.92
2023-05-05T02:06:02.969Z,85.13
2023-05-05T02:07:03.133Z,84.61
2023-05-05T02:08:02.917Z,83.99
2023-05-05T02:09:02.904Z,84.20
2023-05-05T02:10:02.908Z,82.96
2023-05-05T02:11:02.892Z,82.75
2023-05-05T02:12:02.874Z,82.86
2023-05-05T02:13:02.935Z,82.24
2023-05-05T02:14:03.094Z,81.82
2023-05-05T02:15:02.834Z,81.21
2023-05-05T02:16:02.900Z,81.04
2023-05-05T02:17:02.816Z,80.62
2023-05-05T02:18:02.826Z,80.62
2023-05-05T02:19:02.773Z,81.56
2023-05-05T02:20:02.804Z,82.28
2023-05-05T02:21:02.784Z,81.66
2023-05-05T02:22:02.759Z,80.52
2023-05-05T02:23:02.720Z,80.11
2023-05-05T02:24:02.748Z,80.32
2023-05-05T02:25:02.741Z,81.14
2023-05-05T02:26:02.711Z,81.24
2023-05-05T02:27:02.668Z,81.76
2023-05-05T02:28:02.673Z,82.28
2023-05-05T02:29:02.642Z,81.45
2023-05-05T02:30:02.675Z,80.42
2023-05-05T02:31:02.655Z,82.17
2023-05-05T02:32:02.636Z,83.20
2023-05-05T02:33:02.630Z,82.28
2023-05-05T02:34:02.592Z,81.18
2023-05-05T02:35:02.573Z,80.04
2023-05-05T02:36:02.576Z,79.52
2023-05-05T02:37:02.567Z,79.52
2023-05-05T02:38:02.709Z,79.73
2023-05-05T02:39:02.861Z,80.76
2023-05-05T02:40:02.623Z,82.73
2023-05-05T02:41:02.506Z,82.21
2023-05-05T02:42:02.480Z,82.93
2023-05-05T02:43:02.535Z,84.28
2023-05-05T02:44:02.463Z,85.52
2023-05-05T02:45:02.478Z,87.17
2023-05-05T02:46:02.474Z,87.79
2023-05-05T02:47:02.409Z,87.58
2023-05-05T02:48:02.484Z,87.07
2023-05-05T02:49:02.407Z,86.96
2023-05-05T02:50:02.392Z,87.52
2023-05-05T02:51:02.366Z,88.04
2023-05-05T02:52:02.351Z,88.34
2023-05-05T02:53:02.427Z,88.45
2023-05-05T02:54:02.324Z,88.14
2023-05-05T02:55:02.338Z,87.41
2023-05-05T02:56:02.288Z,86.38
2023-05-05T02:57:02.293Z,85.76
2023-05-05T02:58:02.275Z,84.52
2023-05-05T02:59:02.261Z,83.80
2023-05-05T03:00:02.267Z,83.59
2023-05-05T03:01:02.235Z,83.70
2023-05-05T03:02:02.290Z,83.39
2023-05-05T03:03:02.267Z,82.97
2023-05-05T03:04:02.189Z,84.21
2023-05-05T03:05:02.188Z,85.14
2023-05-05T03:06:02.176Z,86.07
2023-05-05T03:07:02.137Z,87.00
2023-05-05T03:08:02.137Z,88.04
2023-05-05T03:09:02.130Z,88.34
2023-05-05T03:10:02.159Z,88.96
2023-05-05T03:11:02.113Z,88.86
2023-05-05T03:12:02.087Z,88.90
2023-05-05T03:13:02.104Z,88.59
2023-05-05T03:14:02.089Z,88.28
2023-05-05T03:15:02.062Z,87.87
2023-05-05T03:16:02.046Z,87.87
2023-05-05T03:17:02.031Z,88.28
2023-05-05T03:18:02.040Z,89.01
2023-05-05T03:19:01.994Z,89.11
2023-05-05T03:20:03.832Z,90.04
2023-05-05T03:21:01.968Z,90.56
2023-05-05T03:22:02.060Z,90.97
2023-05-05T03:23:01.967Z,91.44
2023-05-05T03:24:01.924Z,91.75
2023-05-05T03:25:01.977Z,91.90
2023-05-05T03:26:01.893Z,91.69
2023-05-05T03:27:01.915Z,91.44
2023-05-05T03:28:01.881Z,90.97
2023-05-05T03:29:01.893Z,90.25
2023-05-05T03:30:01.875Z,89.52
2023-05-05T03:31:01.853Z,89.22
2023-05-05T03:32:01.949Z,89.01
2023-05-05T03:33:01.885Z,88.18
2023-05-05T03:34:01.795Z,86.94
2023-05-05T03:35:01.858Z,85.70
2023-05-05T03:36:01.764Z,84.56
2023-05-05T03:37:01.789Z,83.84
2023-05-05T03:38:01.763Z,83.32
2023-05-05T03:39:01.758Z,82.80
2023-05-05T03:40:01.722Z,82.56
2023-05-05T03:41:01.734Z,82.66
2023-05-05T03:42:01.698Z,82.04
2023-05-05T03:43:01.689Z,81.84
2023-05-05T03:44:01.680Z,81.84
2023-05-05T03:45:01.663Z,81.52
2023-05-05T03:46:01.675Z,81.77
2023-05-05T03:47:01.645Z,81.98
2023-05-05T03:48:01.687Z,81.87
2023-05-05T03:49:01.612Z,81.35
2023-05-05T03:50:01.635Z,80.53
2023-05-05T03:51:01.571Z,80.53
2023-05-05T03:52:01.578Z,80.43
2023-05-05T03:53:01.583Z,80.22
2023-05-05T03:54:01.541Z,79.70
2023-05-05T03:55:01.554Z,79.19
2023-05-05T03:56:01.528Z,79.66
2023-05-05T03:57:01.518Z,79.77
2023-05-05T03:58:01.488Z,79.08
2023-05-05T03:59:01.481Z,78.74
2023-05-05T04:00:01.475Z,78.01
2023-05-05T04:01:01.448Z,78.94
2023-05-05T04:02:01.489Z,80.80
2023-05-05T04:03:01.552Z,81.42
2023-05-05T04:04:01.453Z,82.25
2023-05-05T04:05:01.409Z,83.80
2023-05-05T04:06:01.375Z,84.73
2023-05-05T04:07:01.410Z,84.59
2023-05-05T04:08:01.360Z,84.38
2023-05-05T04:09:01.356Z,84.28
2023-05-05T04:10:01.377Z,84.28
2023-05-05T04:11:01.319Z,84.48
2023-05-05T04:12:01.315Z,84.69
2023-05-05T04:13:01.373Z,85.00
2023-05-05T04:14:01.274Z,84.79
2023-05-05T04:15:01.275Z,84.69
2023-05-05T04:16:01.297Z,84.69
2023-05-05T04:17:01.276Z,84.59
2023-05-05T04:18:01.242Z,84.79
2023-05-05T04:19:01.213Z,84.44
2023-05-05T04:20:01.241Z,84.65
2023-05-05T04:21:01.185Z,84.65
2023-05-05T04:22:01.179Z,84.13
2023-05-05T04:23:01.201Z,83.83
2023-05-05T04:24:01.175Z,83.41
2023-05-05T04:25:01.154Z,83.00
2023-05-05T04:26:01.158Z,82.48
2023-05-05T04:27:01.123Z,81.93
2023-05-05T04:28:01.105Z,81.31
2023-05-05T04:29:01.085Z,80.90
2023-05-05T04:30:01.101Z,81.21
2023-05-05T04:31:01.268Z,81.21
2023-05-05T04:32:01.042Z,81.48
2023-05-05T04:33:01.128Z,82.10
2023-05-05T04:34:01.049Z,82.51
2023-05-05T04:35:01.038Z,82.92
2023-05-05T04:36:01.018Z,83.81
2023-05-05T04:37:00.996Z,85.25
2023-05-05T04:38:00.966Z,85.87
2023-05-05T04:39:00.985Z,85.42
2023-05-05T04:40:00.975Z,85.31
2023-05-05T04:41:00.934Z,86.35
2023-05-05T04:42:00.916Z,86.52
2023-05-05T04:43:00.929Z,86.72
2023-05-05T04:44:00.932Z,87.05
2023-05-05T04:45:01.615Z,87.52
2023-05-05T04:46:00.875Z,86.52
2023-05-05T04:47:00.855Z,84.90
2023-05-05T04:48:00.855Z,83.18
2023-05-05T04:49:00.840Z,81.81
2023-05-05T04:50:00.814Z,80.81
2023-05-05T04:51:00.812Z,79.64
2023-05-05T04:52:00.784Z,79.24
2023-05-05T04:53:00.765Z,78.79
2023-05-05T04:54:00.764Z,78.75
2023-05-05T04:55:00.756Z,77.45
2023-05-05T04:56:00.742Z,75.89
2023-05-05T04:57:00.731Z,74.49
2023-05-05T04:58:00.700Z,73.10
2023-05-05T04:59:00.696Z,72.52
2023-05-05T05:00:00.688Z,70.86
2023-05-05T05:01:00.686Z,69.26
2023-05-05T05:02:00.703Z,68.72
2023-05-05T05:03:00.760Z,68.55
2023-05-05T05:04:00.668Z,68.01
2023-05-05T05:05:00.636Z,67.34
2023-05-05T05:06:00.617Z,66.40
2023-05-05T05:07:00.629Z,64.75
2023-05-05T05:08:00.602Z,64.54
2023-05-05T05:09:00.600Z,64.21
2023-05-05T05:10:00.574Z,63.67
2023-05-05T05:11:00.558Z,62.84
2023-05-05T05:12:00.522Z,61.66
2023-05-05T05:13:00.548Z,60.82
2023-05-05T05:14:00.496Z,59.38
2023-05-05T05:15:00.534Z,57.91
2023-05-05T05:16:00.599Z,57.68
2023-05-05T05:17:00.463Z,57.45
2023-05-05T05:18:00.484Z,56.32
2023-05-05T05:19:01.755Z,55.08
2023-05-05T05:20:00.431Z,54.46
2023-05-05T05:21:00.419Z,53.55
2023-05-05T05:22:00.384Z,52.82
2023-05-05T05:23:00.382Z,53.27
2023-05-05T05:24:00.371Z,53.42
2023-05-05T05:25:00.406Z,51.89
2023-05-05T05:26:00.334Z,51.84
2023-05-05T05:27:00.340Z,50.99
2023-05-05T05:28:09.616Z,50.07
2023-05-05T05:29:01.338Z,49.32
2023-05-05T05:30:00.292Z,46.19
2023-05-05T05:31:00.326Z,45.77
2023-05-05T05:32:00.295Z,45.45
2023-05-05T05:33:00.270Z,45.63
2023-05-05T05:34:00.248Z,43.51
2023-05-05T05:35:00.232Z,43.39
2023-05-05T05:36:00.210Z,43.69
2023-05-05T05:37:00.213Z,43.37
2023-05-05T05:38:00.208Z,42.45
2023-05-05T05:39:00.170Z,41.24
2023-05-05T05:40:00.208Z,41.71
2023-05-05T05:41:00.172Z,40.50
2023-05-05T05:42:00.136Z,40.20
2023-05-05T05:43:00.336Z,39.40
2023-05-05T05:44:00.151Z,39.48
2023-05-05T05:45:00.188Z,38.49
2023-05-05T05:46:00.129Z,37.79
2023-05-05T05:47:00.075Z,38.20
2023-05-05T05:48:00.118Z,38.89
2023-05-05T05:49:00.066Z,37.38
2023-05-05T05:50:00.041Z,37.18
2023-05-05T05:51:00.007Z,37.26
2023-05-05T05:51:59.985Z,37.15
2023-05-05T05:53:00.025Z,36.65
2023-05-05T05:53:59.987Z,36.73
2023-05-05T05:54:59.956Z,36.43
2023-05-05T05:55:59.978Z,36.51
2023-05-05T05:57:00.012Z,37.19
2023-05-05T05:57:59.916Z,34.71
2023-05-05T05:58:59.967Z,35.21
2023-05-05T06:00:04.763Z,34.91
2023-05-05T06:00:59.886Z,34.89
2023-05-05T06:01:59.884Z,35.39
2023-05-05T06:03:00.039Z,35.49
2023-05-05T06:03:59.958Z,34.48
2023-05-05T06:04:59.834Z,33.77
2023-05-05T06:05:59.815Z,33.28
2023-05-05T06:06:59.814Z,33.77
2023-05-05T06:07:59.794Z,33.07
2023-05-05T06:08:59.804Z,33.67
2023-05-05T06:10:02.973Z,33.06
2023-05-05T06:11:00.794Z,32.46
2023-05-05T06:11:59.747Z,32.67
2023-05-05T06:12:59.794Z,32.76
2023-05-05T06:13:59.716Z,33.06
2023-05-05T06:14:59.700Z,33.65
2023-05-05T06:15:59.771Z,34.23
2023-05-05T06:16:59.682Z,34.41
2023-05-05T06:17:59.699Z,33.70
2023-05-05T06:18:59.669Z,32.12
2023-05-05T06:19:59.641Z,31.93
2023-05-05T06:20:59.630Z,32.71
2023-05-05T06:21:59.605Z,32.32
2023-05-05T06:22:59.606Z,33.39
2023-05-05T06:23:59.609Z,32.21
2023-05-05T06:24:59.632Z,32.19
2023-05-05T06:25:59.576Z,31.32
2023-05-05T06:26:59.556Z,31.81
2023-05-05T06:27:59.551Z,33.14
2023-05-05T06:28:59.561Z,33.09
2023-05-05T06:29:59.524Z,34.03
2023-05-05T06:30:59.530Z,34.33
2023-05-05T06:31:59.480Z,35.50
2023-05-05T06:32:59.534Z,34.88
2023-05-05T06:33:59.469Z,34.55
2023-05-05T06:34:59.456Z,33.42
2023-05-05T06:35:59.454Z,33.41
2023-05-05T06:36:59.432Z,33.00
2023-05-05T06:37:59.436Z,33.95
2023-05-05T06:38:59.439Z,32.39
2023-05-05T06:39:59.382Z,32.50
2023-05-05T06:40:59.371Z,32.42
2023-05-05T06:41:59.380Z,33.39
2023-05-05T06:42:59.353Z,32.29
2023-05-05T06:43:59.336Z,32.09
2023-05-05T06:44:59.324Z,32.18
2023-05-05T06:45:59.304Z,31.37
2023-05-05T06:46:59.349Z,31.85
2023-05-05T06:47:59.337Z,32.32
2023-05-05T06:48:59.310Z,30.73
2023-05-05T06:49:59.262Z,31.32
2023-05-05T06:50:59.266Z,30.91
2023-05-05T06:51:59.230Z,29.74
2023-05-05T06:52:59.216Z,30.43
2023-05-05T06:53:59.247Z,31.60
2023-05-05T06:54:59.215Z,30.11
2023-05-05T06:55:59.171Z,30.21
2023-05-05T06:56:59.754Z,30.51
2023-05-05T06:57:59.150Z,30.90
2023-05-05T06:58:59.181Z,30.31
2023-05-05T06:59:59.150Z,29.52
2023-05-05T07:00:59.211Z,30.10
2023-05-05T07:01:59.112Z,29.51
2023-05-05T07:02:59.144Z,30.30
2023-05-05T07:03:59.129Z,30.77
2023-05-05T07:04:59.103Z,30.18
2023-05-05T07:05:59.054Z,29.49
2023-05-05T07:06:59.070Z,30.31
2023-05-05T07:07:59.029Z,30.52
2023-05-05T07:08:59.038Z,30.52
2023-05-05T07:09:59.038Z,31.51
2023-05-05T07:10:59.002Z,31.11
2023-05-05T07:11:58.986Z,30.43
2023-05-05T07:12:59.161Z,31.21
2023-05-05T07:13:58.972Z,31.00
2023-05-05T07:14:58.946Z,29.92
2023-05-05T07:15:58.936Z,30.31
2023-05-05T07:16:59.057Z,30.98
2023-05-05T07:17:58.958Z,30.38
2023-05-05T07:18:58.911Z,30.38
2023-05-05T07:19:58.954Z,29.49
2023-05-05T07:20:58.898Z,30.47
2023-05-05T07:21:58.906Z,29.68
2023-05-05T07:22:58.866Z,29.48
2023-05-05T07:23:58.854Z,29.97
2023-05-05T07:24:58.830Z,29.37
2023-05-05T07:25:58.814Z,29.25
2023-05-05T07:26:58.793Z,30.14
2023-05-05T07:27:58.773Z,29.14
2023-05-05T07:28:58.964Z,30.52
2023-05-05T07:29:58.776Z,30.11
2023-05-05T07:30:58.748Z,29.13
2023-05-05T07:31:58.751Z,28.03
2023-05-05T07:32:58.770Z,29.50
2023-05-05T07:33:58.721Z,28.83
2023-05-05T07:34:58.696Z,29.05
2023-05-05T07:35:58.689Z,28.64
2023-05-05T07:36:58.677Z,29.13
2023-05-05T07:37:58.667Z,29.50
2023-05-05T07:38:58.665Z,28.63
2023-05-05T07:39:58.649Z,28.64
2023-05-05T07:40:58.633Z,28.75
2023-05-05T07:41:58.624Z,29.34
2023-05-05T07:42:58.598Z,28.25
2023-05-05T07:43:58.633Z,28.23
2023-05-05T07:44:58.582Z,28.22
2023-05-05T07:45:58.656Z,27.34
2023-05-05T07:46:58.557Z,26.95
2023-05-05T07:47:58.646Z,26.84
2023-05-05T07:48:58.550Z,28.02
2023-05-05T07:49:58.595Z,28.12
2023-05-05T07:50:58.508Z,28.22
2023-05-05T07:51:58.487Z,28.30
2023-05-05T07:53:10.647Z,28.30
2023-05-05T07:53:59.470Z,28.01
2023-05-05T07:54:58.452Z,26.64
2023-05-05T07:55:58.439Z,27.81
2023-05-05T07:56:58.436Z,29.08
2023-05-05T07:57:58.404Z,26.43
2023-05-05T07:58:58.408Z,27.42
2023-05-05T07:59:58.383Z,27.42
2023-05-05T08:00:58.374Z,28.22
2023-05-05T08:01:58.390Z,28.02
2023-05-05T08:02:58.418Z,27.15
2023-05-05T08:03:58.365Z,27.36
2023-05-05T08:04:58.332Z,27.88
2023-05-05T08:05:58.323Z,29.38
2023-05-05T08:06:58.287Z,30.10
2023-05-05T08:07:58.286Z,29.52
2023-05-05T08:08:58.308Z,30.51
2023-05-05T08:09:58.262Z,32.34
2023-05-05T08:10:58.249Z,29.19
2023-05-05T08:11:58.566Z,29.07
2023-05-05T08:12:58.260Z,29.27
2023-05-05T08:13:58.242Z,29.06
2023-05-05T08:14:58.198Z,28.36
2023-05-05T08:15:58.200Z,27.75
2023-05-05T08:16:58.188Z,27.66
2023-05-05T08:17:58.186Z,29.33
2023-05-05T08:18:58.359Z,29.44
2023-05-05T08:19:58.137Z,29.14
2023-05-05T08:20:58.135Z,29.05
2023-05-05T08:22:00.570Z,29.82
2023-05-05T08:22:58.114Z,29.03
2023-05-05T08:23:58.082Z,29.62
2023-05-05T08:24:58.090Z,29.62
2023-05-05T08:25:58.066Z,30.29
2023-05-05T08:26:58.045Z,28.53
2023-05-05T08:27:58.057Z,28.83
2023-05-05T08:28:58.074Z,28.25
2023-05-05T08:29:58.022Z,27.56
2023-05-05T08:30:58.001Z,28.27
2023-05-05T08:31:58.094Z,29.55
2023-05-05T08:32:58.066Z,29.85
2023-05-05T08:33:57.976Z,30.15
2023-05-05T08:34:57.982Z,29.97
2023-05-05T08:35:57.954Z,29.87
2023-05-05T08:36:57.924Z,29.69
2023-05-05T08:37:59.201Z,29.49
2023-05-05T08:38:57.926Z,30.18
2023-05-05T08:39:57.893Z,29.49
2023-05-05T08:40:57.892Z,30.77
2023-05-05T08:41:58.415Z,29.77
2023-05-05T08:42:57.879Z,28.99
2023-05-05T08:43:57.855Z,29.58
2023-05-05T08:44:58.999Z,29.77
2023-05-05T08:45:57.872Z,29.28
2023-05-05T08:46:57.910Z,30.77
2023-05-05T08:47:57.831Z,30.49
2023-05-05T08:48:57.819Z,29.82
2023-05-05T08:49:57.768Z,30.60
2023-05-05T08:50:59.974Z,29.83
2023-05-05T08:51:58.066Z,29.94
2023-05-05T08:52:57.818Z,29.94
2023-05-05T08:53:57.734Z,30.04
2023-05-05T08:54:57.699Z,31.60
2023-05-05T08:55:57.703Z,31.11
2023-05-05T08:56:57.669Z,33.15
2023-05-05T08:57:57.977Z,30.68
2023-05-05T08:58:57.638Z,31.56
2023-05-05T08:59:57.643Z,31.46
2023-05-05T09:00:57.643Z,30.47
2023-05-05T09:01:57.667Z,30.77
2023-05-05T09:02:57.739Z,29.71
2023-05-05T09:03:57.597Z,32.36
2023-05-05T09:04:57.594Z,30.88
2023-05-05T09:05:57.568Z,31.09
2023-05-05T09:06:57.539Z,27.84
2023-05-05T09:07:57.555Z,27.94
2023-05-05T09:08:59.562Z,28.63
2023-05-05T09:09:57.526Z,27.54
2023-05-05T09:10:57.501Z,27.05
2023-05-05T09:11:57.479Z,26.64
2023-05-05T09:12:57.562Z,28.23
2023-05-05T09:13:57.478Z,28.33
2023-05-05T09:14:59.248Z,27.44
2023-05-05T09:15:57.486Z,27.95
2023-05-05T09:16:57.458Z,28.64
2023-05-05T09:17:57.635Z,29.13
2023-05-05T09:18:57.391Z,30.03
2023-05-05T09:19:57.393Z,30.63
2023-05-05T09:20:59.376Z,29.86
2023-05-05T09:21:57.363Z,30.27
2023-05-05T09:22:57.348Z,30.86
2023-05-05T09:24:00.346Z,30.27
2023-05-05T09:24:58.299Z,31.35
2023-05-05T09:25:57.300Z,29.58
2023-05-05T09:26:59.086Z,29.60
2023-05-05T09:27:58.003Z,28.70
2023-05-05T09:28:57.271Z,27.33
2023-05-05T09:29:57.944Z,28.92
2023-05-05T09:30:57.482Z,29.11
2023-05-05T09:31:57.243Z,28.82
2023-05-05T09:32:57.363Z,28.44
2023-05-05T09:33:57.198Z,29.24
2023-05-05T09:34:57.190Z,29.83
2023-05-05T09:35:57.175Z,30.04
2023-05-05T09:36:57.175Z,30.73
2023-05-05T09:37:57.154Z,30.23
2023-05-05T09:38:58.774Z,31.32
2023-05-05T09:39:57.121Z,30.13
2023-05-05T09:40:57.121Z,30.63
2023-05-05T09:41:57.147Z,31.32
2023-05-05T09:42:57.091Z,30.63
2023-05-05T09:43:57.082Z,31.62
2023-05-05T09:44:59.667Z,32.59
2023-05-05T09:45:57.082Z,31.10
2023-05-05T09:46:57.043Z,30.04
2023-05-05T09:48:00.187Z,30.81
2023-05-05T09:48:57.014Z,30.71
2023-05-05T09:49:56.990Z,31.70
2023-05-05T09:50:56.998Z,30.21
2023-05-05T09:51:57.014Z,30.91
2023-05-05T09:52:56.973Z,31.29
2023-05-05T09:53:56.963Z,30.40
2023-05-05T09:54:56.940Z,29.51
2023-05-05T09:55:56.932Z,29.32
2023-05-05T09:56:56.924Z,29.72
2023-05-05T09:57:56.929Z,29.92
2023-05-05T09:58:58.675Z,31.30
2023-05-05T09:59:56.880Z,29.54
2023-05-05T10:00:56.854Z,28.75
2023-05-05T10:01:57.079Z,30.92
2023-05-05T10:02:56.853Z,32.40
2023-05-05T10:03:56.824Z,29.93
2023-05-05T10:04:56.874Z,30.52
2023-05-05T10:05:56.802Z,31.13
2023-05-05T10:06:56.808Z,31.71
2023-05-05T10:07:56.769Z,31.32
2023-05-05T10:08:56.756Z,31.62
2023-05-05T10:09:56.759Z,30.82
2023-05-05T10:10:56.743Z,31.62
2023-05-05T10:11:56.721Z,31.02
2023-05-05T10:12:56.747Z,31.51
2023-05-05T10:13:56.708Z,29.74
2023-05-05T10:14:56.693Z,29.74
2023-05-05T10:15:56.765Z,30.54
2023-05-05T10:16:56.662Z,30.64
2023-05-05T10:18:07.028Z,32.22
2023-05-05T10:18:57.625Z,31.63
2023-05-05T10:19:56.631Z,32.12
2023-05-05T10:20:56.597Z,31.63
2023-05-05T10:21:56.595Z,30.36
2023-05-05T10:22:56.577Z,32.14
2023-05-05T10:23:56.559Z,34.31
2023-05-05T10:24:56.565Z,33.82
2023-05-05T10:25:56.528Z,31.15
2023-05-05T10:26:56.537Z,31.65
2023-05-05T10:27:56.585Z,33.13
2023-05-05T10:28:56.494Z,35.30
2023-05-05T10:29:56.517Z,32.52
2023-05-05T10:30:56.491Z,31.73
2023-05-05T10:31:56.549Z,30.74
2023-05-05T10:33:09.141Z,27.96
2023-05-05T10:33:57.483Z,29.16
2023-05-05T10:34:56.413Z,30.13
2023-05-05T10:35:56.420Z,30.63
2023-05-05T10:36:56.437Z,31.02
2023-05-05T10:37:56.395Z,28.06
2023-05-05T10:38:56.373Z,33.98
2023-05-05T10:39:56.378Z,28.55
2023-05-05T10:40:56.340Z,30.92
2023-05-05T10:41:56.353Z,33.00
2023-05-05T10:42:56.343Z,29.13
2023-05-05T10:43:56.310Z,31.10
2023-05-05T10:44:56.332Z,28.74
2023-05-05T10:45:56.382Z,33.18
2023-05-05T10:46:56.284Z,31.90
2023-05-05T10:47:56.292Z,28.24
2023-05-05T10:48:56.352Z,27.84
2023-05-05T10:49:56.228Z,30.61
2023-05-05T10:50:56.258Z,28.05
2023-05-05T10:51:56.230Z,31.51
2023-05-05T10:52:56.200Z,32.80
2023-05-05T10:53:56.207Z,31.79
2023-05-05T10:54:56.159Z,28.53
2023-05-05T10:55:56.175Z,28.25
2023-05-05T10:56:56.145Z,29.64
2023-05-05T10:57:56.140Z,29.64
2023-05-05T10:59:00.249Z,31.30
2023-05-05T10:59:56.116Z,29.43
2023-05-05T11:00:56.115Z,28.44
2023-05-05T11:01:56.083Z,32.49
2023-05-05T11:02:57.042Z,30.32
2023-05-05T11:03:56.110Z,30.51
2023-05-05T11:04:56.030Z,28.94
2023-05-05T11:05:56.035Z,28.94
2023-05-05T11:06:56.011Z,30.21
2023-05-05T11:07:56.010Z,31.40
2023-05-05T11:08:56.006Z,34.06
2023-05-05T11:09:56.022Z,28.34
2023-05-05T11:10:56.006Z,26.96
2023-05-05T11:11:55.948Z,27.94
2023-05-05T11:12:55.973Z,27.86
2023-05-05T11:13:55.916Z,28.83
2023-05-05T11:14:55.942Z,29.13
2023-05-05T11:15:55.939Z,32.19
2023-05-05T11:16:55.939Z,28.05
2023-05-05T11:17:56.005Z,28.14
2023-05-05T11:18:56.104Z,28.74
2023-05-05T11:19:55.852Z,29.05
2023-05-05T11:20:55.878Z,32.10
2023-05-05T11:21:55.831Z,31.22
2023-05-05T11:22:55.804Z,30.13
2023-05-05T11:23:55.807Z,31.32
2023-05-05T11:24:55.775Z,35.64
2023-05-05T11:25:55.790Z,33.87
2023-05-05T11:26:55.749Z,32.47
2023-05-05T11:27:55.750Z,31.68
2023-05-05T11:28:55.734Z,30.99
2023-05-05T11:29:55.715Z,30.19
2023-05-05T11:30:55.825Z,30.09
2023-05-05T11:31:55.717Z,28.80
2023-05-05T11:32:55.710Z,29.10
2023-05-05T11:33:55.685Z,30.88
2023-05-05T11:34:55.654Z,33.64
2023-05-05T11:35:58.216Z,33.94
2023-05-05T11:36:55.641Z,32.75
2023-05-05T11:37:55.655Z,31.76
2023-05-05T11:38:56.364Z,33.15
2023-05-05T11:39:56.790Z,30.78
2023-05-05T11:40:55.568Z,30.79
2023-05-05T11:41:55.566Z,33.06
2023-05-05T11:42:55.539Z,30.10
2023-05-05T11:43:55.552Z,32.97
2023-05-05T11:44:55.525Z,34.55
2023-05-05T11:45:55.578Z,32.35
2023-05-05T11:46:55.502Z,32.65
2023-05-05T11:47:55.501Z,33.25
2023-05-05T11:48:55.468Z,30.10
2023-05-05T11:49:55.457Z,31.68
2023-05-05T11:50:55.477Z,33.16
2023-05-05T11:51:55.433Z,32.26
2023-05-05T11:52:55.441Z,33.64
2023-05-05T11:53:56.880Z,33.15
2023-05-05T11:54:55.397Z,36.19
2023-05-05T11:55:55.389Z,36.78
2023-05-05T11:56:55.390Z,35.61
2023-05-05T11:57:55.352Z,32.06
2023-05-05T11:58:55.358Z,33.15
2023-05-05T11:59:55.361Z,31.78
2023-05-05T12:00:55.313Z,30.32
2023-05-05T12:01:55.303Z,30.52
2023-05-05T12:02:55.436Z,31.35
2023-05-05T12:03:55.608Z,32.25
2023-05-05T12:04:55.404Z,32.55
2023-05-05T12:05:55.260Z,33.84
2023-05-05T12:06:55.310Z,32.43
2023-05-05T12:07:55.271Z,36.98
2023-05-05T12:08:55.217Z,33.82
2023-05-05T12:09:55.233Z,33.52
2023-05-05T12:10:55.185Z,37.38
2023-05-05T12:11:55.176Z,32.34
2023-05-05T12:12:55.823Z,35.50
2023-05-05T12:13:55.147Z,32.43
2023-05-05T12:14:55.150Z,32.53
2023-05-05T12:15:55.132Z,33.33
2023-05-05T12:16:55.114Z,36.39
2023-05-05T12:17:55.132Z,38.86
2023-05-05T12:18:55.092Z,35.50
2023-05-05T12:19:55.155Z,36.39
2023-05-05T12:20:55.101Z,34.92
2023-05-05T12:21:55.055Z,35.12
2023-05-05T12:22:55.053Z,36.49
2023-05-05T12:23:55.022Z,38.57
2023-05-05T12:24:55.157Z,38.67
2023-05-05T12:25:55.001Z,39.06
2023-05-05T12:26:54.979Z,35.89
2023-05-05T12:27:54.963Z,35.78
2023-05-05T12:28:54.993Z,36.18
2023-05-05T12:29:54.973Z,36.67
2023-05-05T12:30:55.127Z,36.47
2023-05-05T12:31:54.992Z,36.37
2023-05-05T12:32:54.941Z,37.36
2023-05-05T12:33:54.888Z,35.37
2023-05-05T12:34:54.931Z,35.96
2023-05-05T12:35:54.865Z,36.14
2023-05-05T12:36:54.874Z,37.03
2023-05-05T12:37:54.846Z,32.97
2023-05-05T12:38:54.849Z,33.56
2023-05-05T12:39:54.871Z,34.15
2023-05-05T12:40:54.818Z,33.06
2023-05-05T12:41:54.794Z,35.43
2023-05-05T12:42:54.802Z,33.56
2023-05-05T12:43:54.767Z,32.95
2023-05-05T12:44:54.784Z,34.33
2023-05-05T12:45:54.764Z,35.52
2023-05-05T12:46:54.735Z,36.70
2023-05-05T12:47:54.773Z,35.81
2023-05-05T12:48:54.716Z,32.37
2023-05-05T12:49:54.711Z,34.44
2023-05-05T12:50:54.680Z,35.33
2023-05-05T12:51:54.685Z,37.30